createdAt,value
2022-10-11T00:00:40.891Z,63.92
2022-10-11T00:03:07.819Z,63.43
2022-10-11T00:05:35.296Z,63.67
2022-10-11T00:08:01.972Z,63.10
2022-10-11T00:10:28.645Z,64.03
2022-10-11T00:12:55.343Z,63.63
2022-10-11T00:15:23.227Z,63.87
2022-10-11T00:17:50.233Z,64.61
2022-10-11T00:20:17.927Z,64.31
2022-10-11T00:22:44.812Z,64.28
2022-10-11T00:25:12.901Z,64.45
2022-10-11T00:27:39.972Z,65.67
2022-10-11T00:30:07.628Z,67.10
2022-10-11T00:32:35.028Z,66.31
2022-10-11T00:35:06.291Z,65.99
2022-10-11T00:37:38.387Z,67.46
2022-10-11T00:40:13.179Z,67.11
2022-10-11T00:42:39.939Z,66.49
2022-10-11T00:45:28.103Z,65.60
2022-10-11T00:47:57.288Z,66.60
2022-10-11T00:50:25.223Z,66.88
2022-10-11T00:52:59.496Z,66.31
2022-10-11T00:55:29.535Z,64.98
2022-10-11T00:57:57.998Z,65.94
2022-10-11T01:00:24.663Z,65.40
2022-10-11T01:02:51.667Z,65.04
2022-10-11T01:05:29.127Z,65.13
2022-10-11T01:07:56.216Z,64.23
2022-10-11T01:10:22.888Z,64.10
2022-10-11T01:13:12.920Z,64.41
2022-10-11T01:15:45.319Z,64.47
2022-10-11T01:18:22.103Z,64.46
2022-10-11T01:21:03.486Z,64.84
2022-10-11T01:24:15.889Z,63.90
2022-10-11T01:27:00.960Z,63.83
2022-10-11T01:29:53.804Z,63.67
2022-10-11T01:32:29.994Z,63.76
2022-10-11T01:35:10.670Z,63.33
2022-10-11T01:37:45.382Z,64.11
2022-10-11T01:40:48.821Z,63.49
2022-10-11T01:43:16.655Z,64.12
2022-10-11T01:45:45.444Z,63.95
2022-10-11T01:48:13.980Z,63.80
2022-10-11T01:50:45.495Z,63.99
2022-10-11T01:53:48.008Z,63.73
2022-10-11T01:56:36.102Z,64.73
2022-10-11T01:59:34.801Z,64.04
2022-10-11T02:02:04.166Z,64.48
2022-10-11T02:04:38.749Z,64.53
2022-10-11T02:07:08.332Z,64.58
2022-10-11T02:09:51.691Z,64.21
2022-10-11T02:12:30.626Z,63.89
2022-10-11T02:14:58.238Z,64.27
2022-10-11T02:17:27.634Z,63.21
2022-10-11T02:19:57.666Z,63.64
2022-10-11T02:22:33.912Z,63.99
2022-10-11T02:25:05.446Z,63.71
2022-10-11T02:27:37.350Z,64.01
2022-10-11T02:30:07.542Z,63.78
2022-10-11T02:32:36.571Z,63.86
2022-10-11T02:35:03.945Z,64.09
2022-10-11T02:37:52.854Z,64.94
2022-10-11T02:40:32.067Z,64.49
2022-10-11T02:43:07.747Z,64.46
2022-10-11T02:45:58.137Z,63.81
2022-10-11T02:48:28.586Z,63.98
2022-10-11T02:50:57.043Z,64.47
2022-10-11T02:53:25.385Z,65.28
2022-10-11T02:55:53.724Z,66.04
2022-10-11T02:58:21.123Z,65.24
2022-10-11T03:00:47.969Z,64.99
2022-10-11T03:03:15.023Z,64.61
2022-10-11T03:05:42.117Z,65.00
2022-10-11T03:08:10.301Z,64.37
2022-10-11T03:10:38.194Z,64.04
2022-10-11T03:13:04.928Z,64.16
2022-10-11T03:15:31.984Z,64.61
2022-10-11T03:17:58.639Z,64.70
2022-10-11T03:20:25.710Z,64.29
2022-10-11T03:22:52.360Z,64.45
2022-10-11T03:25:19.060Z,64.39
2022-10-11T03:27:45.745Z,63.80
2022-10-11T03:30:17.331Z,64.34
2022-10-11T03:32:44.797Z,63.95
2022-10-11T03:35:11.377Z,64.94
2022-10-11T03:37:38.149Z,63.83
2022-10-11T03:40:06.592Z,64.12
2022-10-11T03:42:33.240Z,63.61
2022-10-11T03:45:01.763Z,63.87
2022-10-11T03:47:28.416Z,63.55
2022-10-11T03:49:54.970Z,64.23
2022-10-11T03:52:21.580Z,64.12
2022-10-11T03:54:48.191Z,63.39
2022-10-11T03:57:14.890Z,63.41
2022-10-11T03:59:41.460Z,63.50
2022-10-11T04:02:08.171Z,63.75
2022-10-11T04:04:34.916Z,64.49
2022-10-11T04:07:01.538Z,64.00
2022-10-11T04:09:28.257Z,64.19
2022-10-11T04:11:54.864Z,64.81
2022-10-11T04:14:21.423Z,64.61
2022-10-11T04:16:48.117Z,64.51
2022-10-11T04:19:14.806Z,64.92
2022-10-11T04:21:41.493Z,64.66
2022-10-11T04:24:11.268Z,64.09
2022-10-11T04:26:38.202Z,64.28
2022-10-11T04:29:06.201Z,64.45
2022-10-11T04:31:32.869Z,64.20
2022-10-11T04:33:59.554Z,63.81
2022-10-11T04:36:26.652Z,64.27
2022-10-11T04:38:56.170Z,63.71
2022-10-11T04:41:22.916Z,64.73
2022-10-11T04:43:49.485Z,63.70
2022-10-11T04:46:16.218Z,64.19
2022-10-11T04:48:42.772Z,63.41
2022-10-11T04:51:09.514Z,63.03
2022-10-11T04:53:36.150Z,63.41
2022-10-11T04:56:11.108Z,63.25
2022-10-11T04:58:41.084Z,63.31
2022-10-11T05:01:09.013Z,63.53
2022-10-11T05:03:36.229Z,63.63
2022-10-11T05:06:05.899Z,63.30
2022-10-11T05:08:33.701Z,63.24
2022-10-11T05:11:04.093Z,64.49
2022-10-11T05:13:31.671Z,64.35
2022-10-11T05:15:58.341Z,63.53
2022-10-11T05:18:25.210Z,63.87
2022-10-11T05:21:02.129Z,63.78
2022-10-11T05:23:30.797Z,64.69
2022-10-11T05:25:57.804Z,63.83
2022-10-11T05:28:24.663Z,64.35
2022-10-11T05:30:51.269Z,63.91
2022-10-11T05:33:17.963Z,63.78
2022-10-11T05:35:44.869Z,64.25
2022-10-11T05:38:11.729Z,63.75
2022-10-11T05:40:39.335Z,63.29
2022-10-11T05:43:06.426Z,64.48
2022-10-11T05:45:40.860Z,63.65
2022-10-11T05:48:08.397Z,64.72
2022-10-11T05:50:35.939Z,64.63
2022-10-11T05:53:03.303Z,63.60
2022-10-11T05:55:30.255Z,63.63
2022-10-11T05:57:57.734Z,63.47
2022-10-11T06:00:24.685Z,65.21
2022-10-11T06:02:51.381Z,64.93
2022-10-11T06:05:18.039Z,64.52
2022-10-11T06:07:44.816Z,65.30
2022-10-11T06:10:11.499Z,64.51
2022-10-11T06:12:38.909Z,64.53
2022-10-11T06:15:06.571Z,64.41
2022-10-11T06:17:33.293Z,63.89
2022-10-11T06:19:59.847Z,63.95
2022-10-11T06:22:26.804Z,64.32
2022-10-11T06:24:53.437Z,63.59
2022-10-11T06:27:20.120Z,64.25
2022-10-11T06:29:46.722Z,63.52
2022-10-11T06:32:13.452Z,63.64
2022-10-11T06:34:40.024Z,62.74
2022-10-11T06:37:06.892Z,63.41
2022-10-11T06:39:33.720Z,62.89
2022-10-11T06:42:00.669Z,62.93
2022-10-11T06:44:27.416Z,62.66
2022-10-11T06:46:54.088Z,63.64
2022-10-11T06:49:23.340Z,63.28
2022-10-11T06:51:50.737Z,62.69
2022-10-11T06:54:17.379Z,63.13
2022-10-11T06:56:45.681Z,62.55
2022-10-11T06:59:13.412Z,63.99
2022-10-11T07:01:40.229Z,63.13
2022-10-11T07:04:08.145Z,62.97
2022-10-11T07:06:38.296Z,62.80
2022-10-11T07:09:05.523Z,62.72
2022-10-11T07:11:32.575Z,61.95
2022-10-11T07:14:07.742Z,62.13
2022-10-11T07:16:37.933Z,62.19
2022-10-11T07:19:06.636Z,61.79
2022-10-11T07:21:34.920Z,61.37
2022-10-11T07:24:02.364Z,61.67
2022-10-11T07:26:33.722Z,61.72
2022-10-11T07:29:05.211Z,61.58
2022-10-11T07:31:32.059Z,61.79
2022-10-11T07:33:58.678Z,61.42
2022-10-11T07:36:25.572Z,60.20
2022-10-11T07:38:52.432Z,60.09
2022-10-11T07:41:19.829Z,59.64
2022-10-11T07:43:47.993Z,60.01
2022-10-11T07:46:14.569Z,60.38
2022-10-11T07:48:41.939Z,60.18
2022-10-11T07:51:11.271Z,59.78
2022-10-11T07:53:42.238Z,61.07
2022-10-11T07:56:12.492Z,59.96
2022-10-11T07:58:41.062Z,60.08
2022-10-11T08:01:09.365Z,60.08
2022-10-11T08:03:37.825Z,59.81
2022-10-11T08:06:08.175Z,59.93
2022-10-11T08:08:36.152Z,59.83
2022-10-11T08:11:02.983Z,59.85
2022-10-11T08:13:29.634Z,59.43
2022-10-11T08:15:56.884Z,58.89
2022-10-11T08:18:24.217Z,59.61
2022-10-11T08:20:50.862Z,59.63
2022-10-11T08:23:19.309Z,58.73
2022-10-11T08:25:48.012Z,59.13
2022-10-11T08:28:16.726Z,59.06
2022-10-11T08:30:53.969Z,59.24
2022-10-11T08:33:22.600Z,60.21
2022-10-11T08:35:49.463Z,60.56
2022-10-11T08:38:16.682Z,60.58
2022-10-11T08:40:48.734Z,60.91
2022-10-11T08:43:30.891Z,60.09
2022-10-11T08:46:01.443Z,60.05
2022-10-11T08:48:42.227Z,60.05
2022-10-11T08:51:18.411Z,59.44
2022-10-11T08:53:57.050Z,58.96
2022-10-11T08:56:26.399Z,59.75
2022-10-11T08:59:11.100Z,59.05
2022-10-11T09:01:46.525Z,59.42
2022-10-11T09:04:18.060Z,58.64
2022-10-11T09:07:04.581Z,58.31
2022-10-11T09:09:45.986Z,58.00
2022-10-11T09:12:30.882Z,57.00
2022-10-11T09:15:14.725Z,57.23
2022-10-11T09:17:52.779Z,58.11
2022-10-11T09:20:31.708Z,57.01
2022-10-11T09:23:11.675Z,56.12
2022-10-11T09:25:48.193Z,56.08
2022-10-11T09:28:37.168Z,56.46
2022-10-11T09:31:04.270Z,56.38
2022-10-11T09:33:38.920Z,56.21
2022-10-11T09:36:30.508Z,55.85
2022-10-11T09:39:21.156Z,55.87
2022-10-11T09:42:01.773Z,54.67
2022-10-11T09:44:46.289Z,54.67
2022-10-11T09:47:25.116Z,53.99
2022-10-11T09:49:57.396Z,54.00
2022-10-11T09:52:25.242Z,54.84
2022-10-11T09:54:55.611Z,54.92
2022-10-11T09:57:30.130Z,54.92
2022-10-11T10:00:04.865Z,53.90
2022-10-11T10:02:56.410Z,53.94
2022-10-11T10:05:28.563Z,52.89
2022-10-11T10:08:04.272Z,53.15
2022-10-11T10:10:39.262Z,53.15
2022-10-11T10:13:22.533Z,51.32
2022-10-11T10:15:55.076Z,51.00
2022-10-11T10:18:32.824Z,50.41
2022-10-11T10:21:00.567Z,50.37
2022-10-11T10:23:30.403Z,50.06
2022-10-11T10:26:29.968Z,49.33
2022-10-11T10:29:00.863Z,48.77
2022-10-11T10:32:08.797Z,48.89
2022-10-11T10:34:33.270Z,48.12
2022-10-11T10:37:20.195Z,47.47
2022-10-11T10:39:52.050Z,48.23
2022-10-11T10:42:20.177Z,47.69
2022-10-11T10:44:52.972Z,48.14
2022-10-11T10:47:44.489Z,46.72
2022-10-11T10:50:21.724Z,46.14
2022-10-11T10:53:06.782Z,47.29
2022-10-11T10:55:47.293Z,45.31
2022-10-11T10:58:25.260Z,44.29
2022-10-11T11:00:57.451Z,44.47
2022-10-11T11:03:46.018Z,44.52
2022-10-11T11:06:25.223Z,44.53
2022-10-11T11:09:02.659Z,43.59
2022-10-11T11:11:54.201Z,42.04
2022-10-11T11:14:40.135Z,41.51
2022-10-11T11:17:31.015Z,41.30
2022-10-11T11:20:15.960Z,41.80
2022-10-11T11:22:55.382Z,40.86
2022-10-11T11:25:29.288Z,40.44
2022-10-11T11:28:14.502Z,40.26
2022-10-11T11:31:03.442Z,39.29
2022-10-11T11:33:47.813Z,39.23
2022-10-11T11:36:25.108Z,39.43
2022-10-11T11:38:58.644Z,39.61
2022-10-11T11:41:40.778Z,40.65
2022-10-11T11:44:46.879Z,39.91
2022-10-11T11:47:34.309Z,38.56
2022-10-11T11:50:15.199Z,39.44
2022-10-11T11:52:47.114Z,39.70
2022-10-11T11:55:21.209Z,38.16
2022-10-11T11:58:20.687Z,38.34
2022-10-11T12:01:15.850Z,38.81
2022-10-11T12:03:51.537Z,40.24
2022-10-11T12:06:26.177Z,41.13
2022-10-11T12:09:09.408Z,41.38
2022-10-11T12:11:45.809Z,42.16
2022-10-11T12:14:29.678Z,41.69
2022-10-11T12:17:23.571Z,40.75
2022-10-11T12:20:08.617Z,40.66
2022-10-11T12:22:35.182Z,40.77
2022-10-11T12:25:21.716Z,40.19
2022-10-11T12:27:54.308Z,41.57
2022-10-11T12:30:42.647Z,41.05
2022-10-11T12:33:46.137Z,40.66
2022-10-11T12:36:28.723Z,40.83
2022-10-11T12:39:18.541Z,41.01
2022-10-11T12:41:48.652Z,41.57
2022-10-11T12:44:18.155Z,40.14
2022-10-11T12:46:50.627Z,41.79
2022-10-11T12:49:38.721Z,40.55
2022-10-11T12:52:25.077Z,41.36
2022-10-11T12:55:13.360Z,42.61
2022-10-11T12:58:06.061Z,42.82
2022-10-11T13:00:50.832Z,43.77
2022-10-11T13:03:26.153Z,44.82
2022-10-11T13:06:01.340Z,45.33
2022-10-11T13:08:32.547Z,45.46
2022-10-11T13:11:04.509Z,45.39
2022-10-11T13:13:38.062Z,45.60
2022-10-11T13:16:09.573Z,44.20
2022-10-11T13:18:36.211Z,43.99
2022-10-11T13:21:03.090Z,44.65
2022-10-11T13:23:37.936Z,43.88
2022-10-11T13:26:05.071Z,43.10
2022-10-11T13:28:36.269Z,42.83
2022-10-11T13:31:04.532Z,43.12
2022-10-11T13:33:34.884Z,42.14
2022-10-11T13:36:03.979Z,42.44
2022-10-11T13:38:33.860Z,42.25
2022-10-11T13:41:04.894Z,41.52
2022-10-11T13:43:32.233Z,41.83
2022-10-11T13:46:00.803Z,40.41
2022-10-11T13:48:31.602Z,42.27
2022-10-11T13:51:17.766Z,40.39
2022-10-11T13:54:00.689Z,41.80
2022-10-11T13:56:29.907Z,41.91
2022-10-11T13:58:57.085Z,41.56
2022-10-11T14:01:35.260Z,41.03
2022-10-11T14:04:06.463Z,41.65
2022-10-11T14:06:47.848Z,42.06
2022-10-11T14:09:26.394Z,41.84
2022-10-11T14:11:53.845Z,41.44
2022-10-11T14:14:29.591Z,41.00
2022-10-11T14:17:12.780Z,41.38
2022-10-11T14:19:39.529Z,42.27
2022-10-11T14:22:11.946Z,42.48
2022-10-11T14:24:38.711Z,41.98
2022-10-11T14:27:06.247Z,42.72
2022-10-11T14:29:36.018Z,42.79
2022-10-11T14:32:17.685Z,43.99
2022-10-11T14:34:46.180Z,43.77
2022-10-11T14:37:14.803Z,43.35
2022-10-11T14:39:41.998Z,43.40
2022-10-11T14:42:10.280Z,43.99
2022-10-11T14:44:36.917Z,44.26
2022-10-11T14:47:06.726Z,44.48
2022-10-11T14:49:36.488Z,45.09
2022-10-11T14:52:06.406Z,45.97
2022-10-11T14:54:33.879Z,45.83
2022-10-11T14:57:03.910Z,45.66
2022-10-11T14:59:37.009Z,45.84
2022-10-11T15:02:06.411Z,46.39
2022-10-11T15:04:33.404Z,46.60
2022-10-11T15:07:00.777Z,47.11
2022-10-11T15:09:30.574Z,46.84
2022-10-11T15:11:57.837Z,46.48
2022-10-11T15:14:25.352Z,47.33
2022-10-11T15:16:52.093Z,47.79
2022-10-11T15:19:24.455Z,46.82
2022-10-11T15:21:52.123Z,45.71
2022-10-11T15:24:21.951Z,44.93
2022-10-11T15:26:49.164Z,44.90
2022-10-11T15:29:17.966Z,45.04
2022-10-11T15:31:44.836Z,45.62
2022-10-11T15:34:11.498Z,47.82
2022-10-11T15:36:38.349Z,48.10
2022-10-11T15:39:23.090Z,49.22
2022-10-11T15:41:49.802Z,48.87
2022-10-11T15:44:16.373Z,48.79
2022-10-11T15:46:43.826Z,49.76
2022-10-11T15:49:13.991Z,49.71
2022-10-11T15:51:41.219Z,51.53
2022-10-11T15:54:07.912Z,50.95
2022-10-11T15:56:35.065Z,50.00
2022-10-11T15:59:02.039Z,49.88
2022-10-11T16:01:28.765Z,49.60
2022-10-11T16:03:55.428Z,50.66
2022-10-11T16:06:23.296Z,51.79
2022-10-11T16:08:50.136Z,51.61
2022-10-11T16:11:17.405Z,51.14
2022-10-11T16:13:45.133Z,52.19
2022-10-11T16:16:12.275Z,52.86
2022-10-11T16:18:39.976Z,52.60
2022-10-11T16:21:10.107Z,53.11
2022-10-11T16:23:38.046Z,53.49
2022-10-11T16:26:08.336Z,53.43
2022-10-11T16:28:35.846Z,53.56
2022-10-11T16:31:14.056Z,53.24
2022-10-11T16:33:45.921Z,52.49
2022-10-11T16:36:34.719Z,54.21
2022-10-11T16:39:06.942Z,54.54
2022-10-11T16:41:33.624Z,55.29
2022-10-11T16:44:00.541Z,55.33
2022-10-11T16:46:27.184Z,54.94
2022-10-11T16:48:58.362Z,54.89
2022-10-11T16:51:25.428Z,55.11
2022-10-11T16:53:53.107Z,55.33
2022-10-11T16:56:22.541Z,55.27
2022-10-11T16:58:49.431Z,55.31
2022-10-11T17:01:16.136Z,56.33
2022-10-11T17:03:42.809Z,57.82
2022-10-11T17:06:09.931Z,56.90
2022-10-11T17:08:36.702Z,56.93
2022-10-11T17:11:04.115Z,56.34
2022-10-11T17:13:30.835Z,56.21
2022-10-11T17:15:57.627Z,57.27
2022-10-11T17:18:24.254Z,57.73
2022-10-11T17:20:51.059Z,57.24
2022-10-11T17:23:17.676Z,56.32
2022-10-11T17:25:46.385Z,59.13
2022-10-11T17:28:13.430Z,61.54
2022-10-11T17:30:42.987Z,59.60
2022-10-11T17:33:09.623Z,59.31
2022-10-11T17:35:36.503Z,59.11
2022-10-11T17:38:06.121Z,58.30
2022-10-11T17:40:33.319Z,58.66
2022-10-11T17:43:00.012Z,58.64
2022-10-11T17:45:26.683Z,57.31
2022-10-11T17:47:53.292Z,58.21
2022-10-11T17:50:20.087Z,58.93
2022-10-11T17:52:47.149Z,59.38
2022-10-11T17:55:13.814Z,59.67
2022-10-11T17:57:40.503Z,59.46
2022-10-11T18:00:07.902Z,59.28
2022-10-11T18:02:34.467Z,59.63
2022-10-11T18:05:01.220Z,60.74
2022-10-11T18:07:27.801Z,59.81
2022-10-11T18:09:54.489Z,59.41
2022-10-11T18:12:21.119Z,59.69
2022-10-11T18:14:47.824Z,59.46
2022-10-11T18:17:14.375Z,59.02
2022-10-11T18:19:41.075Z,60.22
2022-10-11T18:22:07.891Z,59.45
2022-10-11T18:24:34.677Z,59.21
2022-10-11T18:27:01.323Z,59.39
2022-10-11T18:29:27.980Z,58.86
2022-10-11T18:31:54.556Z,59.66
2022-10-11T18:34:21.377Z,59.78
2022-10-11T18:36:48.163Z,59.25
2022-10-11T18:39:15.447Z,59.85
2022-10-11T18:41:44.689Z,60.28
2022-10-11T18:44:16.253Z,60.50
2022-10-11T18:46:44.158Z,60.30
2022-10-11T18:49:11.163Z,60.45
2022-10-11T18:51:40.396Z,61.22
2022-10-11T18:54:08.915Z,59.96
2022-10-11T18:56:37.055Z,60.06
2022-10-11T18:59:04.904Z,59.12
2022-10-11T19:01:34.333Z,58.46
2022-10-11T19:04:02.531Z,59.29
2022-10-11T19:06:33.966Z,59.68
2022-10-11T19:09:10.332Z,59.09
2022-10-11T19:11:37.830Z,58.86
2022-10-11T19:14:08.356Z,58.66
2022-10-11T19:16:37.998Z,59.60
2022-10-11T19:19:05.608Z,61.09
2022-10-11T19:21:32.116Z,59.66
2022-10-11T19:23:59.447Z,59.16
2022-10-11T19:26:35.098Z,60.59
2022-10-11T19:29:14.957Z,60.35
2022-10-11T19:31:44.518Z,60.00
2022-10-11T19:34:11.929Z,60.67
2022-10-11T19:36:39.233Z,59.54
2022-10-11T19:39:06.258Z,60.44
2022-10-11T19:41:33.173Z,59.92
2022-10-11T19:44:00.020Z,59.97
2022-10-11T19:46:49.988Z,60.52
2022-10-11T19:49:17.583Z,61.45
2022-10-11T19:51:44.589Z,60.61
2022-10-11T19:54:13.632Z,60.65
2022-10-11T19:56:40.804Z,61.33
2022-10-11T19:59:07.443Z,60.12
2022-10-11T20:01:35.873Z,60.02
2022-10-11T20:04:07.732Z,60.21
2022-10-11T20:06:38.904Z,59.35
2022-10-11T20:09:28.584Z,59.69
2022-10-11T20:11:56.513Z,59.65
2022-10-11T20:14:23.200Z,59.61
2022-10-11T20:16:50.590Z,59.18
2022-10-11T20:19:17.239Z,58.97
2022-10-11T20:21:44.135Z,59.14
2022-10-11T20:24:10.924Z,60.28
2022-10-11T20:26:37.649Z,59.87
2022-10-11T20:29:04.234Z,59.74
2022-10-11T20:31:33.324Z,60.11
2022-10-11T20:34:02.262Z,60.50
2022-10-11T20:36:30.286Z,60.46
2022-10-11T20:38:58.201Z,60.47
2022-10-11T20:41:37.280Z,59.77
2022-10-11T20:44:04.899Z,59.98
2022-10-11T20:46:37.772Z,60.27
2022-10-11T20:49:07.443Z,59.61
2022-10-11T20:51:36.643Z,59.59
2022-10-11T20:54:04.743Z,60.29
2022-10-11T20:56:31.746Z,61.68
2022-10-11T20:58:58.620Z,60.65
2022-10-11T21:01:30.982Z,60.50
2022-10-11T21:03:58.981Z,58.94
2022-10-11T21:06:26.726Z,59.67
2022-10-11T21:08:55.315Z,59.92
2022-10-11T21:11:27.650Z,60.67
2022-10-11T21:13:56.646Z,60.39
2022-10-11T21:16:23.503Z,61.02
2022-10-11T21:18:51.972Z,61.92
2022-10-11T21:21:18.917Z,63.07
2022-10-11T21:23:45.607Z,62.41
2022-10-11T21:26:13.935Z,63.21
2022-10-11T21:28:41.180Z,62.56
2022-10-11T21:31:10.393Z,62.95
2022-10-11T21:33:38.214Z,62.30
2022-10-11T21:36:06.391Z,61.13
2022-10-11T21:38:33.707Z,62.09
2022-10-11T21:41:07.495Z,60.71
2022-10-11T21:43:36.012Z,62.53
2022-10-11T21:47:01.156Z,63.54
2022-10-11T21:49:19.924Z,63.25
2022-10-11T21:51:46.512Z,62.64
2022-10-11T21:54:13.142Z,62.36
2022-10-11T21:56:39.916Z,61.50
2022-10-11T21:59:09.560Z,61.77
2022-10-11T22:01:39.410Z,61.71
2022-10-11T22:04:07.611Z,61.32
2022-10-11T22:06:35.278Z,60.49
2022-10-11T22:09:01.948Z,60.91
2022-10-11T22:11:28.700Z,61.15
2022-10-11T22:13:55.386Z,60.55
2022-10-11T22:16:22.047Z,61.23
2022-10-11T22:18:49.390Z,62.79
2022-10-11T22:21:18.981Z,63.08
2022-10-11T22:23:48.080Z,62.82
2022-10-11T22:26:17.910Z,61.79
2022-10-11T22:28:46.534Z,61.52
2022-10-11T22:31:14.659Z,60.81
2022-10-11T22:33:42.193Z,61.29
2022-10-11T22:36:11.920Z,61.00
2022-10-11T22:38:40.931Z,60.24
2022-10-11T22:41:07.736Z,60.45
2022-10-11T22:43:34.636Z,61.69
2022-10-11T22:46:01.756Z,61.11
2022-10-11T22:48:28.471Z,62.08
2022-10-11T22:50:55.345Z,61.89
2022-10-11T22:53:21.974Z,62.19
2022-10-11T22:55:48.633Z,62.12
2022-10-11T22:58:15.502Z,61.98
2022-10-11T23:00:42.418Z,63.40
2022-10-11T23:03:16.122Z,61.85
2022-10-11T23:05:42.940Z,64.27
2022-10-11T23:08:10.156Z,63.00
2022-10-11T23:10:40.250Z,62.17
2022-10-11T23:13:07.022Z,61.85
2022-10-11T23:15:33.603Z,62.19
2022-10-11T23:18:00.298Z,62.10
2022-10-11T23:20:26.880Z,62.07
2022-10-11T23:22:53.494Z,61.79
2022-10-11T23:25:20.109Z,61.73
2022-10-11T23:27:46.763Z,61.84
2022-10-11T23:30:13.677Z,61.09
2022-10-11T23:32:40.323Z,60.84
2022-10-11T23:35:07.294Z,60.32
2022-10-11T23:37:33.947Z,61.82
2022-10-11T23:40:00.585Z,61.62
2022-10-11T23:42:27.208Z,61.69
2022-10-11T23:44:54.250Z,61.36
2022-10-11T23:47:20.882Z,61.82
2022-10-11T23:49:47.529Z,61.02
2022-10-11T23:52:14.132Z,62.11
2022-10-11T23:54:40.904Z,62.57
2022-10-11T23:57:07.492Z,62.79
2022-10-11T23:59:34.097Z,61.12
